Time;durP1;ratioP1;P1;durP2;ratioP2;P2;SDS_P1;SDS_P2;PMS_P1;PMS_P2;Temp;Humidity;BMP_temperature;BMP_pressure;BME280_temperature;BME280_humidity;BME280_pressure;Samples;Min_cycle;Max_cycle;Signal;HPM_P1;HPM_P2
2022/10/13 00:01:41;;;;;;;19.48;9.68;;;;;;;12.48;78.27;101848.94;6215998;23;20047;-62
2022/10/13 00:04:06;;;;;;;18.38;9.88;;;;;;;12.52;78.31;101852.53;6189444;23;20008;-62
2022/10/13 00:06:32;;;;;;;17.67;9.93;;;;;;;12.50;78.20;101849.88;6216279;23;20013;-63
2022/10/13 00:08:57;;;;;;;16.98;9.35;;;;;;;12.53;78.14;101839.31;6216255;23;20034;-63
2022/10/13 00:11:26;;;;;;;20.15;10.60;;;;;;;12.52;78.46;101844.59;6216211;23;20419;-62
2022/10/13 00:13:59;;;;;;;19.48;10.30;;;;;;;12.49;78.62;101836.56;6215761;23;20000;-63
2022/10/13 00:16:27;;;;;;;21.08;10.25;;;;;;;12.45;78.76;101832.06;6216034;23;20001;-62
2022/10/13 00:18:53;;;;;;;22.88;10.30;;;;;;;12.45;78.50;101835.63;6216220;23;20075;-62
2022/10/13 00:21:21;;;;;;;22.10;9.77;;;;;;;12.48;78.56;101830.38;6215552;23;20443;-63
2022/10/13 00:23:48;;;;;;;20.33;10.63;;;;;;;12.48;78.81;101818.88;6216118;23;20051;-62
2022/10/13 00:26:15;;;;;;;20.75;10.48;;;;;;;12.47;78.89;101825.06;6214223;23;20375;-61
2022/10/13 00:28:41;;;;;;;17.80;10.95;;;;;;;12.47;79.21;101825.06;6215795;23;20004;-62
2022/10/13 00:31:25;;;;;;;21.95;10.90;;;;;;;12.44;78.97;101825.00;6215735;23;20127;-63
2022/10/13 00:33:51;;;;;;;18.25;11.02;;;;;;;12.35;79.46;101824.81;6215821;23;20008;-62
2022/10/13 00:36:18;;;;;;;18.77;10.60;;;;;;;12.34;79.57;101823.03;6215782;23;20079;-63
2022/10/13 00:38:44;;;;;;;21.88;10.95;;;;;;;12.32;79.38;101827.41;6214160;23;20016;-63
2022/10/13 00:41:09;;;;;;;25.13;10.38;;;;;;;12.28;80.08;101824.69;6215712;23;20008;-62
2022/10/13 00:43:59;;;;;;;19.20;10.88;;;;;;;12.27;80.05;101822.91;6215551;23;20009;-63
2022/10/13 00:46:28;;;;;;;22.80;11.00;;;;;;;12.24;80.16;101827.25;6215943;23;20009;-62
2022/10/13 00:48:55;;;;;;;20.50;10.32;;;;;;;12.21;80.21;101828.09;6215520;23;20001;-62
2022/10/13 00:51:24;;;;;;;19.95;10.18;;;;;;;12.21;80.77;101820.16;6215856;23;20009;-62
2022/10/13 00:53:51;;;;;;;21.23;9.90;;;;;;;12.19;80.56;101813.03;6215640;23;20005;-62
2022/10/13 00:56:18;;;;;;;19.08;10.20;;;;;;;12.24;80.67;101821.94;6215670;23;20000;-63
2022/10/13 00:58:46;;;;;;;20.98;9.95;;;;;;;12.22;80.91;101818.38;6215613;23;20427;-62
2022/10/13 01:01:11;;;;;;;25.30;10.23;;;;;;;12.24;80.42;101820.19;6215632;23;20008;-63
2022/10/13 01:03:37;;;;;;;22.30;10.63;;;;;;;12.24;80.80;101814.88;6215657;23;20388;-61
2022/10/13 01:06:04;;;;;;;18.30;10.43;;;;;;;12.24;80.78;101816.66;6214060;23;20419;-63
2022/10/13 01:08:30;;;;;;;18.50;9.82;;;;;;;12.25;80.92;101816.69;6215636;23;20442;-63
2022/10/13 01:10:59;;;;;;;23.13;10.90;;;;;;;12.25;80.95;101813.16;6215819;23;20009;-61
2022/10/13 01:13:30;;;;;;;22.52;10.80;;;;;;;12.20;81.09;101802.44;6215401;23;20015;-63
2022/10/13 01:16:34;;;;;;;24.23;9.60;;;;;;;12.28;80.49;101821.16;6215493;23;20062;-63
2022/10/13 01:19:39;;;;;;;22.30;9.85;;;;;;;12.32;80.52;101815.03;6215581;23;20040;-61
2022/10/13 01:22:46;;;;;;;22.67;10.40;;;;;;;12.31;80.45;101807.06;6180281;23;20525;-62
2022/10/13 01:25:27;;;;;;;24.58;9.73;;;;;;;12.30;80.26;101806.19;6215653;23;20036;-62
2022/10/13 01:28:17;;;;;;;23.65;10.48;;;;;;;12.30;81.17;101815.91;6215829;23;20005;-62
2022/10/13 01:30:56;;;;;;;24.08;10.18;;;;;;;12.26;80.86;101815.81;6215441;23;20035;-63
2022/10/13 01:33:54;;;;;;;20.58;9.65;;;;;;;12.26;81.32;101818.47;6215830;23;20012;-62
2022/10/13 01:36:46;;;;;;;22.13;10.45;;;;;;;12.27;81.19;101817.59;6134397;23;20444;-62
2022/10/13 01:39:26;;;;;;;19.95;10.45;;;;;;;12.27;80.85;101814.97;6215493;23;20005;-63
2022/10/13 01:42:00;;;;;;;20.60;10.68;;;;;;;12.23;81.44;101812.22;6215543;23;20028;-63
2022/10/13 01:44:33;;;;;;;20.00;10.75;;;;;;;12.24;81.61;101820.19;6215786;23;20004;-63
2022/10/13 01:47:00;;;;;;;20.83;10.00;;;;;;;12.25;81.73;101803.44;6215844;23;20008;-62
2022/10/13 01:49:32;;;;;;;22.92;10.52;;;;;;;12.23;81.60;101799.84;6215305;23;20446;-63
2022/10/13 01:52:02;;;;;;;20.30;10.37;;;;;;;12.22;82.09;101807.78;6215520;23;20335;-62
2022/10/13 01:54:28;;;;;;;16.15;9.93;;;;;;;12.22;81.54;101798.06;6215764;23;20004;-63
2022/10/13 01:56:55;;;;;;;21.25;10.60;;;;;;;12.20;82.25;101796.25;6215370;23;20043;-62
2022/10/13 01:59:23;;;;;;;24.15;10.45;;;;;;;12.18;82.12;101792.69;6216021;23;20020;-63
2022/10/13 02:01:57;;;;;;;20.10;10.18;;;;;;;12.21;82.34;101798.94;6217434;23;20011;-62
2022/10/13 02:04:33;;;;;;;20.52;10.95;;;;;;;12.23;82.44;101791.91;6217193;23;20411;-63
2022/10/13 02:07:20;;;;;;;22.50;9.82;;;;;;;12.21;82.27;101780.41;6190732;23;20486;-61
2022/10/13 02:10:01;;;;;;;21.50;10.18;;;;;;;12.20;82.25;101768.00;6216995;23;20331;-63
2022/10/13 02:12:34;;;;;;;20.70;10.15;;;;;;;12.20;82.76;101767.09;6217210;23;20012;-62
2022/10/13 02:15:01;;;;;;;19.58;10.90;;;;;;;12.20;82.95;101768.00;6217448;23;20058;-63
2022/10/13 02:17:27;;;;;;;18.15;9.88;;;;;;;12.24;82.34;101769.84;6217139;23;20001;-64
2022/10/13 02:19:54;;;;;;;23.83;10.80;;;;;;;12.23;82.93;101776.00;6216999;23;20096;-63
2022/10/13 02:22:23;;;;;;;22.55;10.40;;;;;;;12.25;82.84;101776.94;6217112;23;20374;-64
2022/10/13 02:24:48;;;;;;;19.73;10.02;;;;;;;12.28;82.30;101776.09;6216908;23;20005;-63
2022/10/13 02:27:15;;;;;;;20.52;10.90;;;;;;;12.31;82.20;101769.97;6216954;23;20011;-62
2022/10/13 02:29:55;;;;;;;23.50;10.70;;;;;;;12.32;82.38;101753.19;6216849;23;20015;-64
2022/10/13 02:32:21;;;;;;;17.17;10.30;;;;;;;12.31;82.29;101754.97;6216886;23;20828;-63
2022/10/13 02:34:46;;;;;;;19.92;10.75;;;;;;;12.31;82.41;101754.06;6217153;23;20067;-63
2022/10/13 02:37:12;;;;;;;20.10;10.18;;;;;;;12.31;82.41;101752.31;6216811;23;20423;-62
2022/10/13 02:39:37;;;;;;;18.60;10.23;;;;;;;12.31;82.62;101765.56;6216874;23;20005;-63
2022/10/13 02:42:03;;;;;;;22.98;10.48;;;;;;;12.32;82.63;101755.84;6216837;23;20062;-62
2022/10/13 02:44:28;;;;;;;24.20;10.38;;;;;;;12.29;82.49;101751.41;6217038;23;20442;-62
2022/10/13 02:46:54;;;;;;;16.45;9.70;;;;;;;12.30;83.07;101753.19;6216655;23;20083;-63
2022/10/13 02:49:19;;;;;;;23.05;10.25;;;;;;;12.32;82.78;101750.53;6216765;23;20005;-62
2022/10/13 02:51:44;;;;;;;21.25;9.98;;;;;;;12.33;82.78;101755.88;6216622;23;20008;-62
2022/10/13 02:54:10;;;;;;;20.95;9.75;;;;;;;12.34;82.55;101756.78;6216840;23;20083;-63
2022/10/13 02:56:35;;;;;;;18.70;10.18;;;;;;;12.33;83.11;101753.22;6216961;23;20008;-62
2022/10/13 02:59:00;;;;;;;22.05;10.25;;;;;;;12.32;82.79;101743.47;6216918;23;20009;-63
2022/10/13 03:01:26;;;;;;;21.63;9.57;;;;;;;12.34;83.02;101739.13;6216622;23;20020;-63
2022/10/13 03:03:51;;;;;;;25.25;9.40;;;;;;;12.36;82.82;101741.78;6216610;23;20126;-63
2022/10/13 03:06:17;;;;;;;16.20;9.43;;;;;;;12.36;82.72;101739.13;6190136;23;20009;-63
2022/10/13 03:08:42;;;;;;;17.63;9.25;;;;;;;12.35;82.80;101754.16;6216900;23;20477;-62
2022/10/13 03:11:08;;;;;;;20.48;9.73;;;;;;;12.38;82.84;101737.44;6216307;23;20044;-63
2022/10/13 03:13:33;;;;;;;21.33;10.52;;;;;;;12.37;82.92;101733.84;6216595;23;20384;-64
2022/10/13 03:15:58;;;;;;;21.23;9.65;;;;;;;12.36;82.71;101739.13;6216499;23;20005;-63
2022/10/13 03:18:24;;;;;;;19.08;9.82;;;;;;;12.34;82.81;101730.28;6216445;23;20054;-63
2022/10/13 03:21:03;;;;;;;20.48;10.07;;;;;;;12.34;83.02;101735.59;6216147;23;20344;-63
2022/10/13 03:23:30;;;;;;;16.50;9.45;;;;;;;12.30;83.36;101734.63;6216760;23;20031;-62
2022/10/13 03:25:56;;;;;;;18.55;9.85;;;;;;;12.26;83.59;101723.06;6216683;23;20378;-62
2022/10/13 03:28:21;;;;;;;22.85;10.15;;;;;;;12.26;83.15;101733.69;6216402;23;20423;-62
2022/10/13 03:30:47;;;;;;;16.25;9.43;;;;;;;12.28;83.34;101726.63;6216531;23;20001;-64
2022/10/13 03:33:13;;;;;;;18.13;9.45;;;;;;;12.32;83.03;101732.88;6190292;23;20469;-63
2022/10/13 03:35:38;;;;;;;20.02;9.65;;;;;;;12.37;82.36;101723.25;6216233;23;20019;-63
2022/10/13 03:38:03;;;;;;;22.40;9.70;;;;;;;12.38;82.74;101717.09;6216269;23;20011;-64
2022/10/13 03:40:29;;;;;;;19.88;9.57;;;;;;;12.36;82.99;101718.81;6216199;23;20012;-64
2022/10/13 03:42:54;;;;;;;18.90;10.02;;;;;;;12.37;82.95;101714.41;6216075;23;20012;-63
2022/10/13 03:45:20;;;;;;;18.98;9.60;;;;;;;12.37;83.03;101714.41;6216247;23;20417;-63
2022/10/13 03:47:45;;;;;;;19.40;9.80;;;;;;;12.36;82.97;101724.13;6216302;23;20015;-64
2022/10/13 03:50:10;;;;;;;18.42;10.15;;;;;;;12.34;83.43;101723.22;6216413;23;20084;-62
2022/10/13 03:52:36;;;;;;;18.70;10.63;;;;;;;12.34;83.46;101714.38;6216065;23;20012;-64
2022/10/13 03:55:02;;;;;;;20.23;9.75;;;;;;;12.34;83.92;101717.03;6189519;23;20015;-63
2022/10/13 03:57:27;;;;;;;21.60;11.02;;;;;;;12.34;83.83;101719.69;6216161;23;20015;-63
2022/10/13 03:59:55;;;;;;;20.52;10.00;;;;;;;12.34;83.42;101707.31;6216093;23;20015;-64
2022/10/13 04:02:20;;;;;;;21.65;9.60;;;;;;;12.34;83.51;101699.38;6216289;23;20063;-62
2022/10/13 04:04:45;;;;;;;19.20;9.82;;;;;;;12.33;83.55;101697.56;6216381;23;20374;-63
2022/10/13 04:07:11;;;;;;;16.88;10.00;;;;;;;12.36;83.48;101705.56;6216269;23;20373;-62
2022/10/13 04:09:36;;;;;;;26.35;9.52;;;;;;;12.36;83.62;101694.97;6215825;23;20009;-64
2022/10/13 04:12:02;;;;;;;19.10;9.27;;;;;;;12.37;83.50;101701.16;6215907;23;20028;-62
2022/10/13 04:14:27;;;;;;;19.65;9.45;;;;;;;12.39;83.41;101695.03;6214209;23;20012;-63
2022/10/13 04:16:52;;;;;;;18.30;9.65;;;;;;;12.42;82.93;101697.75;6215882;23;20004;-63
2022/10/13 04:19:18;;;;;;;16.15;9.73;;;;;;;12.45;83.13;101687.16;6189510;23;20008;-63
2022/10/13 04:21:43;;;;;;;18.13;9.88;;;;;;;12.47;82.95;101688.09;6215404;23;20017;-62
2022/10/13 04:24:11;;;;;;;17.83;9.50;;;;;;;12.50;82.86;101689.88;6215793;23;20473;-63
2022/10/13 04:26:36;;;;;;;22.38;10.10;;;;;;;12.51;82.66;101689.94;6215821;23;20079;-63
2022/10/13 04:29:04;;;;;;;19.48;10.23;;;;;;;12.49;83.10;101686.34;6215972;23;20442;-63
2022/10/13 04:31:30;;;;;;;17.30;9.80;;;;;;;12.46;83.21;101683.66;6215624;23;20308;-63
2022/10/13 04:33:57;;;;;;;21.55;10.07;;;;;;;12.47;83.16;101674.84;6215751;23;20001;-63
2022/10/13 04:36:23;;;;;;;19.80;9.63;;;;;;;12.49;83.45;101675.75;6215683;23;20011;-63
2022/10/13 04:38:49;;;;;;;22.17;10.27;;;;;;;12.48;83.72;101667.78;6216034;23;20028;-63
2022/10/13 04:41:16;;;;;;;19.83;9.82;;;;;;;12.46;83.31;101670.41;6215677;23;20009;-62
2022/10/13 04:43:42;;;;;;;18.67;9.68;;;;;;;12.46;83.96;101677.44;6215743;23;20079;-63
2022/10/13 04:46:27;;;;;;;20.80;10.23;;;;;;;12.46;83.69;101682.75;6215606;23;20478;-63
2022/10/13 04:48:53;;;;;;;17.70;10.40;;;;;;;12.44;83.88;101684.50;6216027;23;20036;-65
2022/10/13 04:51:21;;;;;;;23.02;9.85;;;;;;;12.46;84.05;101672.16;6215876;23;20000;-62
2022/10/13 04:53:47;;;;;;;19.73;10.18;;;;;;;12.45;83.81;101678.31;6215577;23;20000;-63
2022/10/13 04:56:15;;;;;;;21.00;10.43;;;;;;;12.46;83.60;101666.84;6215631;23;20015;-62
2022/10/13 04:58:41;;;;;;;18.42;10.23;;;;;;;12.45;83.52;101668.63;6215589;23;20032;-62
2022/10/13 05:01:11;;;;;;;16.75;9.90;;;;;;;12.48;83.31;101683.69;6215635;23;20012;-63
2022/10/13 05:03:37;;;;;;;20.73;10.13;;;;;;;12.51;83.32;101683.75;6215664;23;20009;-64
2022/10/13 05:06:03;;;;;;;19.95;9.15;;;;;;;12.51;82.88;101684.63;6215648;23;20004;-63
2022/10/13 05:08:28;;;;;;;18.17;9.73;;;;;;;12.55;83.10;101667.03;6215585;23;20038;-62
2022/10/13 05:10:59;;;;;;;20.10;9.93;;;;;;;12.57;82.67;101661.72;6215522;23;20012;-62
2022/10/13 05:13:26;;;;;;;17.38;10.10;;;;;;;12.56;82.37;101654.66;6215833;23;20005;-63
2022/10/13 05:15:52;;;;;;;18.38;10.23;;;;;;;12.51;82.95;101662.53;6215901;23;20335;-63
2022/10/13 05:18:17;;;;;;;17.75;9.70;;;;;;;12.48;83.10;101668.66;6213993;23;20412;-63
2022/10/13 05:20:43;;;;;;;22.50;9.88;;;;;;;12.45;83.45;101659.78;6215541;23;20021;-63
2022/10/13 05:23:08;;;;;;;17.40;10.07;;;;;;;12.45;83.31;101673.03;6215480;23;20442;-63
2022/10/13 05:25:34;;;;;;;18.90;10.32;;;;;;;12.44;83.55;101671.25;6215444;23;20007;-63
2022/10/13 05:28:00;;;;;;;21.92;9.48;;;;;;;12.43;83.33;101670.38;6215511;23;20025;-61
2022/10/13 05:30:25;;;;;;;20.50;10.35;;;;;;;12.45;83.06;101670.38;6215378;23;20013;-62
2022/10/13 05:32:51;;;;;;;20.65;10.27;;;;;;;12.41;83.77;101677.38;6215458;23;20088;-62
2022/10/13 05:35:16;;;;;;;22.42;10.68;;;;;;;12.40;83.67;101675.59;6217256;23;20013;-63
2022/10/13 05:37:41;;;;;;;21.98;10.52;;;;;;;12.38;83.85;101687.06;6217362;23;20334;-62
2022/10/13 05:40:07;;;;;;;24.10;11.13;;;;;;;12.34;84.00;101687.88;6217677;23;20017;-61
2022/10/13 05:42:34;;;;;;;24.75;10.95;;;;;;;12.34;84.02;101682.56;6217190;23;20346;-63
2022/10/13 05:44:59;;;;;;;21.60;10.27;;;;;;;12.33;84.12;101675.47;6217413;23;20008;-62
2022/10/13 05:47:27;;;;;;;22.40;11.00;;;;;;;12.34;84.20;101678.16;6217485;23;20016;-63
2022/10/13 05:49:55;;;;;;;19.95;10.43;;;;;;;12.33;84.16;101678.13;6217109;23;20055;-61
2022/10/13 05:52:24;;;;;;;18.58;10.95;;;;;;;12.32;84.09;101671.03;6217287;23;20379;-62
2022/10/13 05:54:55;;;;;;;20.02;10.15;;;;;;;12.33;83.89;101665.75;6217220;23;20477;-63
2022/10/13 05:57:26;;;;;;;20.25;10.82;;;;;;;12.34;84.05;101675.50;6215816;23;20004;-63
2022/10/13 06:00:29;;;;;;;19.08;10.30;;;;;;;12.32;84.33;101663.09;6217230;23;20442;-63
2022/10/13 06:03:02;;;;;;;24.38;10.80;;;;;;;12.32;84.22;101671.94;6191459;23;20108;-62
2022/10/13 06:05:31;;;;;;;23.98;11.60;;;;;;;12.30;84.10;101668.38;6217486;23;20012;-62
2022/10/13 06:07:57;;;;;;;19.45;9.82;;;;;;;12.32;84.24;101685.19;6217234;23;20083;-62
2022/10/13 06:10:23;;;;;;;23.52;10.65;;;;;;;12.33;84.40;101683.41;6216893;23;20147;-62
2022/10/13 06:12:48;;;;;;;22.25;10.88;;;;;;;12.36;84.08;101673.75;6216921;23;20000;-63
2022/10/13 06:15:14;;;;;;;24.70;11.70;;;;;;;12.36;83.77;101670.22;6217072;23;20016;-63
2022/10/13 06:17:39;;;;;;;22.05;11.07;;;;;;;12.38;84.02;101649.97;6216957;23;20008;-62
2022/10/13 06:20:07;;;;;;;24.52;11.13;;;;;;;12.38;84.26;101657.91;6216504;23;20016;-62
2022/10/13 06:22:33;;;;;;;25.55;11.45;;;;;;;12.38;84.44;101653.50;6217029;23;20028;-62
2022/10/13 06:24:59;;;;;;;24.55;11.07;;;;;;;12.35;84.93;101657.84;6216950;23;20055;-62
2022/10/13 06:27:24;;;;;;;21.52;11.50;;;;;;;12.37;84.49;101645.50;6216910;23;20374;-63
2022/10/13 06:29:50;;;;;;;20.45;10.98;;;;;;;12.43;84.33;101653.56;6216765;23;20009;-63
2022/10/13 06:32:15;;;;;;;28.05;11.50;;;;;;;12.45;84.15;101638.56;6217155;23;20432;-62
2022/10/13 06:34:40;;;;;;;25.38;11.55;;;;;;;12.46;84.11;101654.50;6217103;23;20071;-62
2022/10/13 06:37:06;;;;;;;20.25;10.85;;;;;;;12.45;84.19;101651.81;6216791;23;20442;-62
2022/10/13 06:39:31;;;;;;;19.17;11.73;;;;;;;12.46;83.97;101649.22;6217173;23;20032;-62
2022/10/13 06:41:57;;;;;;;20.17;11.23;;;;;;;12.47;84.27;101653.63;6217158;23;20510;-62
2022/10/13 06:44:22;;;;;;;24.80;11.68;;;;;;;12.47;84.10;101661.59;6216574;23;20346;-62
2022/10/13 06:46:47;;;;;;;26.05;11.65;;;;;;;12.49;84.34;101648.34;6217037;23;20031;-62
2022/10/13 06:49:13;;;;;;;26.48;11.60;;;;;;;12.49;84.47;101658.94;6216800;23;20068;-63
2022/10/13 06:51:38;;;;;;;18.25;10.77;;;;;;;12.54;84.21;101651.97;6216649;23;20304;-62
2022/10/13 06:54:04;;;;;;;19.90;11.30;;;;;;;12.60;83.39;101648.53;6216744;23;20451;-62
2022/10/13 06:56:29;;;;;;;18.65;11.48;;;;;;;12.63;83.58;101653.84;6190184;23;20080;-63
2022/10/13 06:58:55;;;;;;;22.13;11.55;;;;;;;12.61;83.53;101656.50;6216924;23;20015;-61
2022/10/13 07:01:20;;;;;;;22.95;12.20;;;;;;;12.62;83.83;101644.13;6216909;23;20413;-62
2022/10/13 07:03:49;;;;;;;23.98;11.65;;;;;;;12.66;83.81;101635.34;6216625;23;20009;-61
2022/10/13 07:06:15;;;;;;;22.77;11.88;;;;;;;12.70;83.12;101642.50;6216626;23;20490;-62
2022/10/13 07:08:40;;;;;;;25.15;12.27;;;;;;;12.73;83.49;101643.44;6216524;23;20104;-62
2022/10/13 07:11:08;;;;;;;23.67;12.18;;;;;;;12.75;83.64;101643.44;6216416;23;20087;-61
2022/10/13 07:13:33;;;;;;;19.88;12.35;;;;;;;12.76;83.08;101638.19;6216652;23;20068;-62
2022/10/13 07:16:02;;;;;;;24.85;13.13;;;;;;;12.73;83.07;101646.09;6216528;23;20391;-61
2022/10/13 07:18:27;;;;;;;25.52;12.00;;;;;;;12.76;83.22;101648.78;6216477;23;20005;-62
2022/10/13 07:20:52;;;;;;;23.92;11.95;;;;;;;12.81;83.11;101650.63;6216169;23;20019;-63
2022/10/13 07:23:18;;;;;;;24.52;12.52;;;;;;;12.83;82.92;101655.06;6216737;23;20443;-62
2022/10/13 07:25:43;;;;;;;19.33;12.23;;;;;;;12.81;83.13;101651.50;6216679;23;20058;-63
2022/10/13 07:28:08;;;;;;;21.52;12.55;;;;;;;12.81;83.06;101658.56;6216424;23;20008;-63
2022/10/13 07:30:34;;;;;;;22.85;12.82;;;;;;;12.79;83.54;101662.06;6216596;23;20012;-62
2022/10/13 07:32:59;;;;;;;21.42;12.18;;;;;;;12.81;83.22;101650.63;6216274;23;20015;-63
2022/10/13 07:35:25;;;;;;;26.20;12.60;;;;;;;12.86;83.08;101660.41;6216207;23;20087;-63
2022/10/13 07:37:52;;;;;;;24.83;12.20;;;;;;;12.86;82.69;101655.09;6216167;23;20009;-61
2022/10/13 07:40:17;;;;;;;24.17;12.05;;;;;;;12.88;83.17;101655.13;6216505;23;20036;-62
2022/10/13 07:42:43;;;;;;;22.23;11.52;;;;;;;12.92;82.92;101659.59;6216081;23;20013;-63
2022/10/13 07:45:08;;;;;;;25.17;12.68;;;;;;;12.95;83.20;101660.53;6216180;23;20012;-62
2022/10/13 07:47:34;;;;;;;26.13;12.18;;;;;;;12.96;83.07;101659.66;6216545;23;20087;-62
2022/10/13 07:49:59;;;;;;;25.85;12.55;;;;;;;12.97;82.65;101657.91;6216337;23;20019;-62
2022/10/13 07:52:24;;;;;;;23.45;12.77;;;;;;;12.99;82.61;101664.13;6214558;23;20004;-62
2022/10/13 07:54:50;;;;;;;20.23;11.98;;;;;;;12.99;82.64;101658.81;6216228;23;20323;-63
2022/10/13 07:57:16;;;;;;;27.00;12.63;;;;;;;13.00;83.03;101663.25;6215945;23;20035;-62
2022/10/13 07:59:41;;;;;;;21.35;12.32;;;;;;;13.04;82.57;101660.66;6215962;23;20019;-62
2022/10/13 08:02:08;;;;;;;19.60;11.90;;;;;;;13.11;82.62;101660.75;6215987;23;20059;-62
2022/10/13 08:04:34;;;;;;;23.27;12.27;;;;;;;13.15;82.51;101668.78;6215971;23;20012;-62
2022/10/13 08:07:00;;;;;;;22.75;12.23;;;;;;;13.21;82.17;101665.31;6216010;23;20374;-63
2022/10/13 08:09:26;;;;;;;25.27;12.95;;;;;;;13.24;82.11;101668.94;6215929;23;20004;-62
2022/10/13 08:11:52;;;;;;;21.27;11.65;;;;;;;13.27;81.74;101660.09;6189270;23;20020;-63
2022/10/13 08:14:18;;;;;;;23.48;12.40;;;;;;;13.30;81.35;101659.25;6216072;23;20039;-63
2022/10/13 08:16:44;;;;;;;24.80;11.77;;;;;;;13.40;81.01;101664.69;6215882;23;20004;-62
2022/10/13 08:19:14;;;;;;;22.00;11.63;;;;;;;13.47;81.25;101652.38;6216284;23;20012;-63
2022/10/13 08:21:39;;;;;;;20.15;11.65;;;;;;;13.51;80.30;101646.25;6215788;23;20024;-63
2022/10/13 08:24:07;;;;;;;24.38;11.98;;;;;;;13.55;80.19;101652.47;6215795;23;20013;-62
2022/10/13 08:26:33;;;;;;;21.65;11.73;;;;;;;13.55;80.06;101647.19;6215836;23;20062;-63
2022/10/13 08:28:59;;;;;;;23.40;12.48;;;;;;;13.52;80.44;101659.53;6215753;23;20008;-62
2022/10/13 08:31:24;;;;;;;24.38;12.20;;;;;;;13.52;80.66;101653.31;6189313;23;20011;-63
2022/10/13 08:33:51;;;;;;;25.95;11.88;;;;;;;13.55;80.37;101645.41;6216178;23;20008;-62
2022/10/13 08:36:17;;;;;;;21.10;11.55;;;;;;;13.59;80.43;101638.38;6215887;23;20431;-63
2022/10/13 08:38:43;;;;;;;22.77;11.63;;;;;;;13.63;79.92;101638.41;6215844;23;20000;-62
2022/10/13 08:41:22;;;;;;;20.63;11.63;;;;;;;13.75;79.60;101632.34;6215788;23;20063;-63
2022/10/13 08:43:51;;;;;;;19.30;11.80;;;;;;;13.81;79.42;101637.72;6215586;23;20004;-63
2022/10/13 08:46:24;;;;;;;23.35;11.40;;;;;;;13.88;79.13;101633.38;6216014;23;20058;-62
2022/10/13 08:48:49;;;;;;;;;;;;;;;13.94;78.72;101639.63;6216331;23;20008;-62
2022/10/13 08:51:15;;;;;;;26.40;11.70;;;;;;;13.96;78.35;101640.53;6215821;23;19989;-63
2022/10/13 08:53:44;;;;;;;24.10;12.40;;;;;;;13.97;77.88;101646.75;6215621;23;20518;-63
2022/10/13 08:56:16;;;;;;;19.52;11.13;;;;;;;14.01;77.67;101648.56;6215626;23;20028;-62
2022/10/13 08:58:42;;;;;;;21.95;11.65;;;;;;;13.98;78.75;101643.19;6215797;23;20008;-61
2022/10/13 09:01:07;;;;;;;21.23;11.30;;;;;;;13.96;78.31;101631.66;6215649;23;20009;-63
2022/10/13 09:03:48;;;;;;;21.95;12.23;;;;;;;13.95;77.99;101632.53;6215675;23;20019;-62
2022/10/13 09:06:17;;;;;;;20.73;11.55;;;;;;;13.96;78.36;101639.63;6215951;23;20039;-63
2022/10/13 09:08:47;;;;;;;24.33;11.93;;;;;;;13.99;78.76;101632.56;6215962;23;20005;-62
2022/10/13 09:11:13;;;;;;;20.10;11.45;;;;;;;14.03;78.31;101628.19;6217575;23;20005;-61
2022/10/13 09:13:39;;;;;;;21.58;10.95;;;;;;;14.06;78.30;101619.34;6217524;23;20028;-63
2022/10/13 09:16:05;;;;;;;21.90;11.10;;;;;;;14.05;78.08;101615.81;6217996;23;20032;-62
2022/10/13 09:18:32;;;;;;;25.60;11.95;;;;;;;14.03;78.38;101623.75;6217511;23;20376;-63
2022/10/13 09:21:21;;;;;;;27.65;12.15;;;;;;;14.04;78.23;101617.56;6217371;23;20040;-62
2022/10/13 09:23:49;;;;;;;18.58;11.38;;;;;;;14.00;78.39;101629.06;6217980;23;20022;-61
2022/10/13 09:26:19;;;;;;;25.55;12.00;;;;;;;14.03;78.87;101625.53;6217913;23;20000;-61
2022/10/13 09:28:45;;;;;;;23.33;12.40;;;;;;;14.06;78.64;101628.22;6217614;23;20008;-62
2022/10/13 09:31:22;;;;;;;30.92;12.25;;;;;;;14.03;78.38;101629.06;6217893;23;20083;-62
2022/10/13 09:34:01;;;;;;;24.00;12.32;;;;;;;14.00;78.42;101622.84;6217857;23;20040;-63
2022/10/13 09:36:27;;;;;;;20.70;12.35;;;;;;;13.98;78.44;101614.84;6217810;23;20079;-62
2022/10/13 09:39:04;;;;;;;26.30;12.43;;;;;;;14.03;78.40;101622.88;6217524;23;20331;-62
2022/10/13 09:41:30;;;;;;;25.90;12.02;;;;;;;14.07;78.16;101614.03;6217506;23;20001;-62
2022/10/13 09:43:59;;;;;;;23.10;12.63;;;;;;;14.04;78.01;101608.69;6217131;23;20009;-62
2022/10/13 09:46:32;;;;;;;21.27;12.63;;;;;;;14.01;77.88;101611.34;6217671;23;20084;-61
2022/10/13 09:49:03;;;;;;;23.70;12.50;;;;;;;14.06;78.71;101614.94;6217404;23;20434;-62
2022/10/13 09:51:37;;;;;;;19.33;12.48;;;;;;;14.09;78.66;101606.06;6217223;23;20431;-61
2022/10/13 09:54:04;;;;;;;21.15;12.38;;;;;;;14.08;77.69;101613.16;6217242;23;20064;-60
2022/10/13 09:56:42;;;;;;;18.13;11.32;;;;;;;14.08;77.89;101620.25;6217339;23;20035;-62
2022/10/13 09:59:30;;;;;;;20.77;10.80;;;;;;;14.08;78.23;101623.78;6217674;23;20009;-63
2022/10/13 10:01:58;;;;;;;20.27;11.45;;;;;;;14.06;78.50;101619.34;6217586;23;20005;-62
2022/10/13 10:04:36;;;;;;;22.52;11.93;;;;;;;14.06;79.26;101619.34;6217194;23;20071;-61
2022/10/13 10:07:11;;;;;;;24.08;11.32;;;;;;;14.00;79.80;101618.44;6217505;23;20008;-63
2022/10/13 10:09:44;;;;;;;20.17;10.68;;;;;;;13.95;80.92;101611.28;6217157;23;20076;-61
2022/10/13 10:12:16;;;;;;;25.60;11.20;;;;;;;13.89;81.42;101603.25;6217132;23;20489;-62
2022/10/13 10:14:42;;;;;;;;;;;;;;;13.93;80.25;101613.03;6217733;23;20017;-62
2022/10/13 10:17:35;;;;;;;17.50;9.88;;;;;;;13.86;81.59;101619.16;6217064;23;19911;-63
2022/10/13 10:20:09;;;;;;;21.38;11.00;;;;;;;13.85;82.55;101612.06;6216531;23;20005;-62
2022/10/13 10:22:44;;;;;;;23.92;11.43;;;;;;;13.86;82.98;101598.78;6215366;23;20005;-63
2022/10/13 10:25:32;;;;;;;17.58;10.60;;;;;;;13.86;83.32;101603.22;6215326;23;20045;-64
2022/10/13 10:28:21;;;;;;;21.17;10.98;;;;;;;13.88;83.31;101593.53;6215441;23;20427;-63
2022/10/13 10:31:13;;;;;;;21.70;10.80;;;;;;;13.87;83.29;101608.53;6215240;23;20004;-64
2022/10/13 10:34:00;;;;;;;22.43;10.80;;;;;;;13.90;82.70;101599.72;6199064;23;20005;-64
2022/10/13 10:36:57;;;;;;;21.20;10.25;;;;;;;13.87;82.41;101600.56;6215379;23;20039;-65
2022/10/13 10:39:47;;;;;;;16.98;10.23;;;;;;;13.87;82.58;101597.03;6215461;23;20016;-65
2022/10/13 10:42:43;;;;;;;19.00;10.32;;;;;;;13.86;82.45;101597.91;6215575;23;20016;-64
2022/10/13 10:45:24;;;;;;;17.67;10.10;;;;;;;13.83;82.41;101593.44;6215182;23;20483;-64
2022/10/13 10:47:59;;;;;;;21.77;10.35;;;;;;;13.81;82.87;101594.31;6215514;23;20035;-64
2022/10/13 10:50:25;;;;;;;17.15;10.38;;;;;;;13.70;83.85;101597.78;6215449;23;20454;-64
2022/10/13 10:53:26;;;;;;;18.50;10.00;;;;;;;13.68;84.48;101590.66;6215108;23;20435;-64
2022/10/13 10:56:05;;;;;;;18.92;10.35;;;;;;;13.72;85.21;101596.00;6210409;23;20017;-66
2022/10/13 10:58:42;;;;;;;19.30;10.18;;;;;;;13.79;84.57;101604.94;6215282;23;20086;-64
2022/10/13 11:01:10;;;;;;;19.60;10.90;;;;;;;13.81;85.21;101602.28;6215128;23;20004;-64
2022/10/13 11:04:11;;;;;;;19.40;11.93;;;;;;;13.82;85.02;101594.31;6214975;23;20004;-64
2022/10/13 11:06:37;;;;;;;25.77;12.35;;;;;;;13.87;85.05;101592.59;6215091;23;20084;-65
2022/10/13 11:09:05;;;;;;;19.77;11.88;;;;;;;13.93;84.86;101582.03;6215310;23;20036;-65
2022/10/13 11:11:37;;;;;;;19.48;11.02;;;;;;;13.99;84.79;101578.53;6214916;23;20139;-65
2022/10/13 11:14:05;;;;;;;30.05;11.70;;;;;;;14.04;84.22;101576.81;6214792;23;20005;-64
2022/10/13 11:16:37;;;;;;;18.88;11.25;;;;;;;14.11;84.38;101569.78;6215259;23;20008;-64
2022/10/13 11:19:28;;;;;;;20.73;11.38;;;;;;;14.18;84.43;101572.50;6215010;23;20069;-65
2022/10/13 11:21:53;;;;;;;25.55;12.13;;;;;;;14.20;84.08;101570.75;6168527;23;1107769;-65
2022/10/13 11:24:41;;;;;;;17.92;10.68;;;;;;;14.25;83.76;101565.44;6214785;23;20016;-65